Chale, United Kingdom
Current Conditions -  °F | °C
As of 12:50 PM on Tuesday 21 Oct 2014 (Local Time) from EGHI Reporting Station
Scattered Clouds Scattered Clouds  
Wind Chill: 55°   Ceiling: Unl
Heat Index: 55°   Visibility: 6mi
Dew Point: 37°   Wind: 21mph
Humidity: 51%   Direction: 290°WNW
Pressure: 29.8"   Gusts: 43mph
Location:  50.6°N, 1.32°W
Report Text: EGHI 211150Z 29018G37KT 240V330 9999 SCT048 13/03 Q1009
Loading
Personal Weather Stations






























Interactive Weather Map
Tropical Storm Tracking
New forecast layout! Learn more

10-Day Weather Forecast

Advertisements
Track Severe Weather on mobile